Time;durP1;ratioP1;P1;durP2;ratioP2;P2;SDS_P1;SDS_P2;PMS_P1;PMS_P2;Temp;Humidity;BMP_temperature;BMP_pressure;BME280_temperature;BME280_humidity;BME280_pressure;Samples;Min_cycle;Max_cycle;Signal;HPM_P1;HPM_P2
2022/03/09 00:01:58;;;;;;;17.43;9.17;;;-2.60;99.90;;;;;;5071958;28;20224;-60
2022/03/09 00:04:25;;;;;;;20.57;9.03;;;-2.60;99.90;;;;;;5071952;28;20517;-59
2022/03/09 00:06:50;;;;;;;15.77;8.27;;;-2.70;99.90;;;;;;5070089;28;20188;-58
2022/03/09 00:09:16;;;;;;;18.90;8.67;;;-2.70;99.90;;;;;;5071824;28;20612;-56
2022/03/09 00:11:42;;;;;;;21.50;9.73;;;-2.60;99.90;;;;;;5071808;28;20184;-59
2022/03/09 00:14:08;;;;;;;18.60;7.33;;;-2.60;99.90;;;;;;5071443;28;20219;-59
2022/03/09 00:16:34;;;;;;;15.90;8.50;;;-2.60;99.90;;;;;;5071545;28;20304;-59
2022/03/09 00:19:00;;;;;;;21.50;8.63;;;-2.60;99.90;;;;;;5050223;28;20300;-58
2022/03/09 00:21:25;;;;;;;20.23;9.60;;;-2.60;99.90;;;;;;5051151;28;20696;-56
2022/03/09 00:23:51;;;;;;;16.87;9.37;;;-2.60;99.90;;;;;;5051495;28;20193;-61
2022/03/09 00:26:17;;;;;;;23.40;9.33;;;-2.70;99.90;;;;;;5051496;28;20200;-58
2022/03/09 00:28:43;;;;;;;14.40;7.50;;;-2.70;99.90;;;;;;5051406;28;20208;-56
2022/03/09 00:31:08;;;;;;;13.70;6.07;;;-2.60;99.90;;;;;;5054715;28;20263;-56
2022/03/09 00:33:34;;;;;;;6.57;2.67;;;-2.60;99.90;;;;;;5053369;28;20205;-56
2022/03/09 00:36:00;;;;;;;8.30;3.43;;;-2.80;99.90;;;;;;5070949;28;20251;-59
2022/03/09 00:38:26;;;;;;;6.03;2.97;;;-2.90;99.90;;;;;;5071290;28;20602;-58
2022/03/09 00:40:52;;;;;;;8.10;3.80;;;-3.00;99.90;;;;;;5071567;28;20176;-58
2022/03/09 00:43:18;;;;;;;9.03;3.53;;;-3.10;99.90;;;;;;5071149;28;20192;-57
2022/03/09 00:45:44;;;;;;;15.87;6.47;;;-3.10;99.90;;;;;;5071269;28;20248;-58
2022/03/09 00:48:10;;;;;;;8.27;3.70;;;-3.10;99.90;;;;;;5071098;28;20667;-59
2022/03/09 00:50:36;;;;;;;9.90;3.80;;;-3.20;99.90;;;;;;5071089;28;20180;-58
2022/03/09 00:53:01;;;;;;;12.17;4.20;;;-3.20;99.90;;;;;;5052704;28;20208;-58
2022/03/09 00:55:27;;;;;;;8.17;3.23;;;-3.20;99.90;;;;;;5053246;28;20187;-58
2022/03/09 00:57:53;;;;;;;6.47;3.27;;;-3.30;99.90;;;;;;5071282;28;20632;-58
2022/03/09 01:00:18;;;;;;;8.13;3.80;;;-3.30;99.90;;;;;;5052714;28;20270;-59
2022/03/09 01:02:45;;;;;;;6.90;3.30;;;-3.30;99.90;;;;;;5075098;28;20192;-58
2022/03/09 01:05:12;;;;;;;6.43;2.97;;;-3.30;99.90;;;;;;5074586;28;20182;-59
2022/03/09 01:07:38;;;;;;;9.37;3.50;;;-3.40;99.90;;;;;;5075520;28;20190;-59
2022/03/09 01:10:05;;;;;;;6.30;2.80;;;-3.50;99.90;;;;;;5074935;28;20175;-57
2022/03/09 01:12:32;;;;;;;11.90;3.40;;;-3.50;99.90;;;;;;5056958;28;20226;-59
2022/03/09 01:14:58;;;;;;;8.93;2.83;;;-3.60;99.90;;;;;;5074790;28;20223;-60
2022/03/09 01:17:26;;;;;;;5.10;2.80;;;-3.60;99.90;;;;;;5081605;28;20190;-59
2022/03/09 01:19:52;;;;;;;7.17;3.33;;;-3.60;99.90;;;;;;5095412;28;20516;-58
2022/03/09 01:22:18;;;;;;;7.30;3.00;;;-3.70;99.90;;;;;;5094737;28;20178;-58
2022/03/09 01:24:43;;;;;;;9.53;3.33;;;-3.70;99.90;;;;;;5094921;28;20183;-58
2022/03/09 01:27:09;;;;;;;6.13;2.93;;;-3.80;99.90;;;;;;5095010;28;20581;-59
2022/03/09 01:29:35;;;;;;;6.23;2.90;;;-3.90;99.90;;;;;;5095158;28;20222;-59
2022/03/09 01:32:01;;;;;;;5.60;2.97;;;-3.90;99.90;;;;;;5094588;28;20670;-59
2022/03/09 01:34:26;;;;;;;6.03;3.23;;;-3.90;99.90;;;;;;5094790;28;20264;-61
2022/03/09 01:36:52;;;;;;;7.50;3.90;;;-3.90;99.90;;;;;;5095176;28;20186;-59
2022/03/09 01:39:18;;;;;;;7.00;3.07;;;-3.90;99.90;;;;;;5094696;28;20173;-60
2022/03/09 01:41:44;;;;;;;8.00;3.17;;;-4.00;99.90;;;;;;5076828;28;20190;-59
2022/03/09 01:44:12;;;;;;;7.17;3.30;;;-4.00;99.90;;;;;;5094898;28;20210;-59
2022/03/09 01:46:39;;;;;;;6.37;3.03;;;-4.10;99.90;;;;;;5094672;28;20209;-61
2022/03/09 01:49:06;;;;;;;9.73;3.40;;;-4.20;99.90;;;;;;5094551;28;20187;-59
2022/03/09 01:51:33;;;;;;;7.37;3.40;;;-4.20;99.90;;;;;;5094792;28;20189;-59
2022/03/09 01:53:59;;;;;;;8.30;3.53;;;-4.30;99.90;;;;;;5076123;28;20670;-60
2022/03/09 01:56:26;;;;;;;8.70;3.23;;;-4.50;99.90;;;;;;5094811;28;20265;-59
2022/03/09 01:58:52;;;;;;;9.17;3.63;;;-4.50;99.90;;;;;;5094857;28;20167;-59
2022/03/09 02:01:17;;;;;;;7.23;3.13;;;-4.50;99.90;;;;;;5059334;28;20665;-60
2022/03/09 02:03:43;;;;;;;8.00;3.90;;;-4.40;99.90;;;;;;5076311;28;20224;-59
2022/03/09 02:06:10;;;;;;;9.50;3.83;;;-4.40;99.90;;;;;;5076155;28;20216;-59
2022/03/09 02:11:20;;;;;;;9.23;3.53;;;-4.30;99.90;;;;;;5094141;28;20204;-59
2022/03/09 02:13:46;;;;;;;8.50;3.97;;;-4.40;99.90;;;;;;5074869;28;20214;-59
2022/03/09 02:16:14;;;;;;;9.30;3.47;;;-4.40;99.90;;;;;;5094497;28;20529;-56
2022/03/09 02:18:40;;;;;;;10.37;4.93;;;-4.40;99.90;;;;;;5086221;28;20277;-59
2022/03/09 02:21:10;;;;;;;8.60;3.47;;;-4.40;99.90;;;;;;5082844;28;20630;-59
2022/03/09 02:23:36;;;;;;;10.00;4.13;;;-4.40;99.90;;;;;;5074072;28;20265;-58
2022/03/09 02:26:02;;;;;;;11.20;3.83;;;-4.40;99.90;;;;;;5073355;28;20189;-62
2022/03/09 02:28:27;;;;;;;11.27;3.53;;;-4.40;99.90;;;;;;5055713;28;20182;-59
2022/03/09 02:30:57;;;;;;;7.33;3.70;;;-4.40;99.90;;;;;;5073387;28;20194;-58
2022/03/09 02:33:23;;;;;;;10.07;3.47;;;-4.40;99.90;;;;;;5073023;28;20228;-58
2022/03/09 02:35:52;;;;;;;21.87;4.63;;;-4.40;99.90;;;;;;5055229;28;20185;-58
2022/03/09 02:38:18;;;;;;;7.10;3.90;;;-4.40;99.90;;;;;;5073426;28;20187;-59
2022/03/09 02:40:43;;;;;;;15.20;4.53;;;-4.30;99.90;;;;;;5073438;28;20178;-59
2022/03/09 02:43:09;;;;;;;10.03;4.03;;;-4.30;99.90;;;;;;5073037;28;20190;-60
2022/03/09 02:45:35;;;;;;;8.77;3.63;;;-4.30;99.90;;;;;;5073594;28;20313;-59
2022/03/09 02:48:01;;;;;;;11.27;3.87;;;-4.30;99.90;;;;;;5073025;28;20174;-64
2022/03/09 02:50:26;;;;;;;8.53;3.50;;;-4.30;99.90;;;;;;5073510;28;20201;-59
2022/03/09 02:52:52;;;;;;;12.13;3.17;;;-4.30;99.90;;;;;;5055198;28;20257;-59
2022/03/09 02:55:18;;;;;;;8.80;3.60;;;-4.30;99.90;;;;;;5072910;28;20181;-59
2022/03/09 02:57:44;;;;;;;8.87;3.50;;;-4.30;99.90;;;;;;5054968;28;20586;-59
2022/03/09 03:00:11;;;;;;;6.97;3.60;;;-4.20;99.90;;;;;;5073316;28;20177;-59
2022/03/09 03:02:38;;;;;;;8.73;3.43;;;-4.20;99.90;;;;;;5073126;28;20190;-60
2022/03/09 03:05:08;;;;;;;9.10;3.43;;;-4.20;99.90;;;;;;5072944;28;20183;-59
2022/03/09 03:07:34;;;;;;;7.00;3.17;;;-4.20;99.90;;;;;;5073089;28;20218;-59
2022/03/09 03:10:00;;;;;;;5.40;2.73;;;-4.20;99.90;;;;;;5072921;28;20237;-60
2022/03/09 03:12:26;;;;;;;9.63;4.07;;;-4.20;99.90;;;;;;5072790;28;20261;-59
2022/03/09 03:14:51;;;;;;;9.47;4.03;;;-4.20;99.90;;;;;;5072356;28;20253;-59
2022/03/09 03:17:17;;;;;;;7.90;3.17;;;-4.20;99.90;;;;;;5078949;28;20191;-58
2022/03/09 03:19:43;;;;;;;8.60;3.40;;;-4.30;99.90;;;;;;5075137;28;20659;-59
2022/03/09 03:22:09;;;;;;;9.37;2.80;;;-4.40;99.90;;;;;;5092683;28;20181;-59
2022/03/09 03:24:35;;;;;;;6.50;3.07;;;-4.50;99.90;;;;;;5092779;28;20839;-59
2022/03/09 03:27:01;;;;;;;6.27;2.90;;;-4.60;99.90;;;;;;5093236;28;20218;-60
2022/03/09 03:29:27;;;;;;;5.87;2.93;;;-4.70;99.90;;;;;;5092888;28;20205;-60
2022/03/09 03:31:53;;;;;;;10.67;3.00;;;-4.80;99.90;;;;;;5092583;28;20225;-60
2022/03/09 03:34:18;;;;;;;4.77;2.60;;;-4.80;99.90;;;;;;5092361;28;20274;-60
2022/03/09 03:36:44;;;;;;;12.50;3.23;;;-4.80;99.90;;;;;;5092660;28;20189;-59
2022/03/09 03:39:10;;;;;;;6.80;3.87;;;-4.80;99.90;;;;;;5092050;28;20169;-59
2022/03/09 03:41:36;;;;;;;5.40;2.03;;;-4.80;99.90;;;;;;5092296;28;20184;-59
2022/03/09 03:44:03;;;;;;;4.40;2.20;;;-4.80;99.90;;;;;;5092624;28;20235;-61
2022/03/09 03:46:29;;;;;;;7.97;2.90;;;-4.80;99.90;;;;;;5093010;28;20209;-57
2022/03/09 03:48:55;;;;;;;14.57;2.93;;;-4.70;99.90;;;;;;5074224;28;20281;-59
2022/03/09 03:51:20;;;;;;;7.10;3.63;;;-4.70;99.90;;;;;;5092356;28;20184;-58
2022/03/09 03:53:46;;;;;;;7.30;2.87;;;-4.70;99.90;;;;;;5074165;28;20210;-59
2022/03/09 03:56:12;;;;;;;6.33;2.73;;;-4.70;99.90;;;;;;5091833;28;20653;-61
2022/03/09 03:58:37;;;;;;;5.67;2.90;;;-4.70;99.90;;;;;;5041527;28;20216;-58
2022/03/09 04:01:03;;;;;;;6.33;2.90;;;-4.70;99.90;;;;;;5074243;28;20515;-63
2022/03/09 04:03:29;;;;;;;5.50;3.00;;;-4.70;99.90;;;;;;5074174;28;20214;-59
2022/03/09 04:05:55;;;;;;;12.97;3.30;;;-4.80;99.90;;;;;;5073202;28;20185;-59
2022/03/09 04:08:20;;;;;;;6.83;2.57;;;-4.80;99.90;;;;;;5073483;28;20574;-59
2022/03/09 04:10:46;;;;;;;9.97;3.17;;;-4.80;99.90;;;;;;5073932;28;20181;-59
2022/03/09 04:13:12;;;;;;;7.13;3.20;;;-4.80;99.90;;;;;;5091897;28;20205;-58
2022/03/09 04:15:38;;;;;;;5.50;3.00;;;-4.90;99.90;;;;;;5091887;28;20189;-58
2022/03/09 04:18:04;;;;;;;10.27;2.90;;;-4.90;99.90;;;;;;5091798;28;20637;-60
2022/03/09 04:20:29;;;;;;;4.77;2.47;;;-4.90;99.90;;;;;;5091537;28;20233;-60
2022/03/09 04:22:55;;;;;;;9.67;2.97;;;-4.90;99.90;;;;;;5091587;28;20857;-60
2022/03/09 04:25:22;;;;;;;8.07;3.33;;;-5.00;99.90;;;;;;5091875;28;20169;-58
2022/03/09 04:27:48;;;;;;;16.87;4.67;;;-5.00;99.90;;;;;;5091677;28;20691;-59
2022/03/09 04:30:13;;;;;;;7.37;2.80;;;-5.00;99.90;;;;;;5091491;28;20185;-59
2022/03/09 04:32:39;;;;;;;5.13;2.57;;;-5.10;99.90;;;;;;5091300;28;20232;-59
2022/03/09 04:35:06;;;;;;;5.57;2.67;;;-5.20;99.90;;;;;;5091129;28;20246;-58
2022/03/09 04:37:33;;;;;;;4.30;2.53;;;-5.20;99.90;;;;;;5090723;28;20199;-59
2022/03/09 04:40:00;;;;;;;6.00;2.80;;;-5.30;99.90;;;;;;5091354;28;20609;-60
2022/03/09 04:42:27;;;;;;;5.23;2.77;;;-5.30;99.90;;;;;;5091212;28;20199;-58
2022/03/09 04:44:53;;;;;;;9.30;3.43;;;-5.40;99.90;;;;;;5073631;28;20208;-59
2022/03/09 04:47:19;;;;;;;11.77;4.23;;;-5.50;99.90;;;;;;5091209;28;20581;-60
2022/03/09 04:49:45;;;;;;;19.33;4.50;;;-5.50;99.90;;;;;;5072896;28;20189;-59
2022/03/09 04:52:11;;;;;;;9.13;3.30;;;-5.50;99.90;;;;;;5090640;28;20180;-60
2022/03/09 04:54:37;;;;;;;5.20;2.43;;;-5.70;99.90;;;;;;5091067;28;20521;-57
2022/03/09 04:57:03;;;;;;;6.13;3.43;;;-5.70;99.90;;;;;;5091250;28;20201;-58
2022/03/09 04:59:29;;;;;;;8.43;3.13;;;-5.80;99.90;;;;;;5090649;28;20191;-57
2022/03/09 05:01:55;;;;;;;9.70;3.80;;;-5.90;99.90;;;;;;5090660;28;20664;-60
2022/03/09 05:04:21;;;;;;;9.30;4.30;;;-5.90;99.90;;;;;;5090667;28;20183;-59
2022/03/09 05:06:46;;;;;;;10.03;4.10;;;-5.90;99.90;;;;;;5091311;28;20173;-60
2022/03/09 05:09:12;;;;;;;6.63;4.07;;;-5.90;99.90;;;;;;5091027;28;20177;-60
2022/03/09 05:11:38;;;;;;;8.53;4.17;;;-5.90;99.90;;;;;;5073163;28;20231;-59
2022/03/09 05:14:04;;;;;;;11.03;3.93;;;-5.90;99.90;;;;;;5072727;28;20216;-59
2022/03/09 05:16:30;;;;;;;7.33;3.03;;;-5.90;99.90;;;;;;5090822;28;20190;-60
2022/03/09 05:18:56;;;;;;;9.70;3.83;;;-5.90;99.90;;;;;;5055876;28;20193;-60
2022/03/09 05:21:21;;;;;;;7.37;3.40;;;-5.80;99.90;;;;;;5072549;28;20197;-60
2022/03/09 05:23:47;;;;;;;6.60;3.07;;;-5.80;99.90;;;;;;5072482;28;20586;-59
2022/03/09 05:26:13;;;;;;;11.83;3.97;;;-5.70;99.90;;;;;;5072581;28;20574;-60
2022/03/09 05:28:39;;;;;;;9.57;4.47;;;-5.70;99.90;;;;;;5090694;28;20200;-59
2022/03/09 05:31:05;;;;;;;6.20;2.70;;;-5.70;99.90;;;;;;5072447;28;20277;-59
2022/03/09 05:33:30;;;;;;;11.10;4.40;;;-5.70;99.90;;;;;;5090246;28;20269;-61
2022/03/09 05:35:56;;;;;;;8.93;3.90;;;-5.70;99.90;;;;;;5090454;28;20520;-60
2022/03/09 05:38:22;;;;;;;6.97;3.40;;;-5.60;99.90;;;;;;5090038;28;20245;-60
2022/03/09 05:40:48;;;;;;;9.27;3.57;;;-5.60;99.90;;;;;;5090561;28;20272;-59
2022/03/09 05:43:13;;;;;;;6.87;3.40;;;-5.60;99.90;;;;;;5090120;28;20185;-60
2022/03/09 05:45:39;;;;;;;7.17;3.43;;;-5.50;99.90;;;;;;5090014;28;20197;-60
2022/03/09 05:48:05;;;;;;;10.80;3.87;;;-5.40;99.90;;;;;;5092854;28;20578;-60
2022/03/09 05:50:31;;;;;;;6.57;3.77;;;-5.40;99.90;;;;;;5074862;28;20212;-61
2022/03/09 05:52:57;;;;;;;6.77;3.10;;;-5.30;99.90;;;;;;5075816;28;20238;-59
2022/03/09 05:55:23;;;;;;;5.83;3.40;;;-5.30;99.90;;;;;;5075152;28;20257;-59
2022/03/09 05:57:48;;;;;;;8.17;3.27;;;-5.20;99.90;;;;;;5093973;28;20612;-58
2022/03/09 06:00:15;;;;;;;13.20;4.03;;;-5.20;99.90;;;;;;5092942;28;20294;-63
2022/03/09 06:02:41;;;;;;;16.57;5.10;;;-5.10;99.90;;;;;;5093889;28;20184;-63
2022/03/09 06:05:07;;;;;;;12.60;3.30;;;-5.10;99.90;;;;;;5093730;28;20176;-65
2022/03/09 06:07:33;;;;;;;7.10;3.60;;;-5.10;99.90;;;;;;5093324;28;20228;-63
2022/03/09 06:09:59;;;;;;;10.50;3.73;;;-5.10;99.90;;;;;;5093516;28;20177;-60
2022/03/09 06:12:25;;;;;;;14.07;4.93;;;-5.20;99.90;;;;;;5075127;28;20544;-60
2022/03/09 06:14:50;;;;;;;8.97;3.90;;;-5.10;99.90;;;;;;5075084;28;20220;-66
2022/03/09 06:17:16;;;;;;;9.10;3.40;;;-5.00;99.90;;;;;;5093738;28;20263;-62
2022/03/09 06:19:42;;;;;;;7.07;2.27;;;-4.90;99.90;;;;;;5093666;28;20188;-65
2022/03/09 06:22:08;;;;;;;9.20;3.57;;;-4.90;99.90;;;;;;5075325;28;20648;-60
2022/03/09 06:24:33;;;;;;;8.37;3.37;;;-4.80;99.90;;;;;;5083425;28;20201;-59
2022/03/09 06:26:59;;;;;;;9.33;4.53;;;-4.80;99.90;;;;;;5090588;28;20197;-59
2022/03/09 06:29:26;;;;;;;10.30;4.33;;;-4.80;99.90;;;;;;5083704;28;20199;-66
2022/03/09 06:31:52;;;;;;;7.80;3.90;;;-4.80;99.90;;;;;;5083768;28;20269;-60
2022/03/09 06:34:18;;;;;;;9.10;3.37;;;-4.70;99.90;;;;;;5088112;28;20217;-64
2022/03/09 06:36:44;;;;;;;7.10;3.50;;;-4.60;99.90;;;;;;5087543;28;20193;-61
2022/03/09 06:39:15;;;;;;;7.83;3.30;;;-4.70;99.90;;;;;;5080657;28;20284;-61
2022/03/09 06:41:43;;;;;;;5.07;2.27;;;-4.70;99.90;;;;;;5088762;28;20215;-62
2022/03/09 06:44:09;;;;;;;9.17;3.53;;;-4.70;99.90;;;;;;5079749;28;20642;-63
2022/03/09 06:46:35;;;;;;;7.03;3.80;;;-4.60;99.90;;;;;;5091566;28;20176;-75
2022/03/09 06:49:01;;;;;;;9.23;2.93;;;-4.60;99.90;;;;;;5057720;28;20177;-80
2022/03/09 06:51:27;;;;;;;11.60;3.83;;;-4.70;99.90;;;;;;5073355;28;20200;-77
2022/03/09 06:53:53;;;;;;;8.17;4.00;;;-4.70;99.90;;;;;;5073700;28;20209;-72
2022/03/09 06:56:19;;;;;;;8.43;3.63;;;-4.60;99.90;;;;;;5070029;28;20602;-67
2022/03/09 06:58:45;;;;;;;7.90;3.30;;;-4.50;99.90;;;;;;5091426;28;20192;-65
2022/03/09 07:01:11;;;;;;;10.50;4.23;;;-4.50;99.90;;;;;;5089881;28;20654;-61
2022/03/09 07:03:37;;;;;;;8.07;4.20;;;-4.40;99.90;;;;;;5056750;28;20608;-64
2022/03/09 07:06:03;;;;;;;7.60;4.20;;;-4.40;99.90;;;;;;5089862;28;20188;-64
2022/03/09 07:08:29;;;;;;;9.60;4.10;;;-4.20;99.90;;;;;;5091526;28;20215;-62
2022/03/09 07:10:55;;;;;;;13.10;5.07;;;-4.10;99.90;;;;;;5072450;28;20189;-59
2022/03/09 07:13:21;;;;;;;9.07;4.03;;;-4.10;99.90;;;;;;5091596;28;20227;-58
2022/03/09 07:15:47;;;;;;;8.97;3.53;;;-4.20;99.90;;;;;;5089327;28;20191;-61
2022/03/09 07:18:12;;;;;;;6.63;3.80;;;-4.30;99.90;;;;;;5091452;28;20275;-60
2022/03/09 07:20:40;;;;;;;9.13;4.40;;;-4.20;99.90;;;;;;5090181;28;20192;-60
2022/03/09 07:23:06;;;;;;;6.07;2.67;;;-4.10;99.90;;;;;;5090915;28;20209;-61
2022/03/09 07:25:32;;;;;;;8.43;4.07;;;-3.90;99.90;;;;;;5089353;28;20544;-59
2022/03/09 07:27:58;;;;;;;7.70;3.57;;;-3.90;99.90;;;;;;5073173;28;20340;-62
2022/03/09 07:30:24;;;;;;;10.33;4.27;;;-3.90;99.90;;;;;;5089194;28;20174;-61
2022/03/09 07:32:50;;;;;;;8.40;3.90;;;-3.90;99.90;;;;;;5090826;28;20909;-61
2022/03/09 07:35:16;;;;;;;8.40;3.30;;;-3.80;99.90;;;;;;5089443;28;20228;-62
2022/03/09 07:37:42;;;;;;;5.23;2.90;;;-3.90;99.90;;;;;;5091093;28;20190;-64
2022/03/09 07:40:09;;;;;;;6.23;3.10;;;-3.80;99.90;;;;;;5071564;28;20650;-61
2022/03/09 07:42:35;;;;;;;10.43;4.43;;;-3.80;99.90;;;;;;5090369;28;20693;-60
2022/03/09 07:45:03;;;;;;;7.40;3.73;;;-3.80;99.90;;;;;;5071887;28;20249;-61
2022/03/09 07:47:29;;;;;;;10.17;4.67;;;-3.70;99.90;;;;;;5089973;28;20174;-61
2022/03/09 07:49:55;;;;;;;10.93;4.33;;;-3.40;99.90;;;;;;5090866;28;20193;-61
2022/03/09 07:52:21;;;;;;;7.13;3.60;;;-3.30;99.90;;;;;;5090318;28;20189;-63
2022/03/09 07:54:46;;;;;;;9.97;3.77;;;-3.10;99.90;;;;;;5071822;28;20551;-61
2022/03/09 07:57:12;;;;;;;9.40;4.17;;;-3.10;99.90;;;;;;5090107;28;20636;-61
2022/03/09 07:59:38;;;;;;;9.33;4.70;;;-3.10;99.90;;;;;;5071189;28;20730;-61
2022/03/09 08:02:04;;;;;;;10.33;3.67;;;-3.00;99.90;;;;;;5088946;28;20194;-62
2022/03/09 08:04:29;;;;;;;11.97;4.70;;;-2.80;99.90;;;;;;5089571;28;20739;-62
2022/03/09 08:06:55;;;;;;;8.47;4.00;;;-2.90;99.90;;;;;;5071131;28;20186;-63
2022/03/09 08:09:21;;;;;;;10.77;4.90;;;-3.10;99.90;;;;;;5070932;28;20189;-64
2022/03/09 08:11:47;;;;;;;7.30;3.40;;;-3.00;99.90;;;;;;5070326;28;20288;-60
2022/03/09 08:14:13;;;;;;;10.10;3.30;;;-2.90;99.90;;;;;;5089348;28;20241;-64
2022/03/09 08:16:39;;;;;;;6.97;4.10;;;-2.80;99.90;;;;;;5070243;28;20190;-62
2022/03/09 08:19:05;;;;;;;7.87;4.37;;;-2.80;99.90;;;;;;5091058;28;20217;-63
2022/03/09 08:21:32;;;;;;;8.47;3.90;;;-2.80;99.90;;;;;;5091709;28;20294;-62
2022/03/09 08:23:58;;;;;;;6.53;3.33;;;-2.80;99.90;;;;;;5091273;28;20283;-63
2022/03/09 08:26:24;;;;;;;12.67;5.07;;;-2.90;99.90;;;;;;5090439;28;20212;-63
2022/03/09 08:28:50;;;;;;;14.10;4.00;;;-3.00;99.90;;;;;;5090519;28;20674;-63
2022/03/09 08:31:17;;;;;;;13.57;5.47;;;-3.10;99.90;;;;;;5072458;28;20689;-62
2022/03/09 08:33:43;;;;;;;7.30;3.77;;;-3.20;99.90;;;;;;5090904;28;20261;-61
2022/03/09 08:36:11;;;;;;;7.67;3.77;;;-3.20;99.90;;;;;;5090691;28;20619;-62
2022/03/09 08:38:37;;;;;;;6.77;3.37;;;-3.20;99.90;;;;;;5089734;28;20183;-61
2022/03/09 08:41:03;;;;;;;10.33;4.13;;;-3.10;99.90;;;;;;5091103;28;20260;-62
2022/03/09 08:43:28;;;;;;;6.40;3.43;;;-2.90;99.90;;;;;;5090624;28;20276;-61
2022/03/09 08:45:54;;;;;;;8.20;3.83;;;-2.80;99.90;;;;;;5056224;28;20195;-62
2022/03/09 08:48:20;;;;;;;11.40;4.57;;;-2.80;99.90;;;;;;5072444;28;20305;-64
2022/03/09 08:50:46;;;;;;;7.83;3.77;;;-2.80;99.90;;;;;;5090692;28;20192;-62
2022/03/09 08:53:12;;;;;;;11.77;4.70;;;-2.50;99.90;;;;;;5090777;28;20192;-63
2022/03/09 08:55:38;;;;;;;16.27;4.90;;;-2.40;99.90;;;;;;5055564;28;20203;-62
2022/03/09 08:58:04;;;;;;;8.10;3.63;;;-2.20;99.90;;;;;;5090538;28;20171;-63
2022/03/09 09:00:30;;;;;;;8.80;4.17;;;-2.40;99.90;;;;;;5089814;28;20179;-63
2022/03/09 09:02:56;;;;;;;8.33;3.70;;;-2.60;99.90;;;;;;5071959;28;20207;-62
2022/03/09 09:05:22;;;;;;;7.77;4.10;;;-2.70;99.90;;;;;;5072576;28;20541;-62
2022/03/09 09:07:48;;;;;;;5.77;2.27;;;-2.70;99.90;;;;;;5090594;28;20616;-62
2022/03/09 09:10:14;;;;;;;9.37;4.47;;;-2.90;99.90;;;;;;5090665;28;20179;-62
2022/03/09 09:12:40;;;;;;;6.97;3.53;;;-3.00;99.90;;;;;;5090033;28;20735;-62
2022/03/09 09:15:06;;;;;;;6.23;3.63;;;-3.00;99.90;;;;;;5068326;28;20242;-70
2022/03/09 09:17:33;;;;;;;9.57;4.70;;;-3.00;99.90;;;;;;5069446;28;20749;-69
2022/03/09 09:19:58;;;;;;;6.77;3.40;;;-2.80;99.90;;;;;;5070839;28;20248;-70
2022/03/09 09:22:24;;;;;;;10.17;5.10;;;-2.50;99.90;;;;;;5071937;28;20246;-72
2022/03/09 09:24:50;;;;;;;10.27;4.60;;;-2.50;99.90;;;;;;5075424;28;20195;-72
2022/03/09 09:27:16;;;;;;;8.23;4.87;;;-2.40;99.90;;;;;;5074901;28;20206;-72
2022/03/09 09:29:42;;;;;;;8.50;4.37;;;-2.50;99.90;;;;;;5074356;28;20210;-70
2022/03/09 09:32:08;;;;;;;8.77;5.50;;;-2.70;99.90;;;;;;5078927;28;20232;-67
2022/03/09 09:34:34;;;;;;;9.97;4.77;;;-2.70;99.90;;;;;;5092171;28;20596;-73
2022/03/09 09:37:02;;;;;;;10.27;5.20;;;-2.40;99.90;;;;;;5083481;28;20195;-72
2022/03/09 09:39:28;;;;;;;9.67;4.27;;;-2.30;99.90;;;;;;5083545;28;20213;-66
2022/03/09 09:41:54;;;;;;;9.23;4.63;;;-2.20;99.90;;;;;;5092948;28;20195;-67
2022/03/09 09:44:21;;;;;;;12.27;4.67;;;-2.30;99.90;;;;;;5091467;28;20653;-78
2022/03/09 09:46:47;;;;;;;10.87;4.07;;;-2.20;99.90;;;;;;5092695;28;20239;-67
2022/03/09 09:49:15;;;;;;;7.87;3.90;;;-2.10;99.90;;;;;;5092727;28;20184;-68
2022/03/09 09:51:44;;;;;;;4.03;1.93;;;-2.20;99.90;;;;;;5081285;28;20196;-66
2022/03/09 09:54:10;;;;;;;7.00;3.47;;;-2.40;99.90;;;;;;5092491;28;20317;-69
2022/03/09 09:56:41;;;;;;;8.20;3.07;;;-2.50;99.90;;;;;;5091520;28;20230;-68
2022/03/09 09:59:08;;;;;;;3.87;2.43;;;-2.40;99.90;;;;;;5091607;28;20207;-65
2022/03/09 10:01:35;;;;;;;7.13;2.97;;;-2.20;99.90;;;;;;5091385;28;20243;-72
2022/03/09 10:04:02;;;;;;;4.10;2.40;;;-2.20;99.90;;;;;;5082684;28;20550;-70
2022/03/09 10:06:28;;;;;;;8.07;3.27;;;-2.20;99.90;;;;;;5090831;28;20686;-71
2022/03/09 10:09:11;;;;;;;7.20;3.60;;;-2.20;99.90;;;;;;5082325;28;20230;-65
2022/03/09 10:11:54;;;;;;;4.70;2.73;;;-2.30;99.90;;;;;;5092185;28;20263;-73
2022/03/09 10:14:41;;;;;;;5.17;2.60;;;-2.30;99.80;;;;;;5090632;28;20305;-71
2022/03/09 10:17:10;;;;;;;3.63;1.90;;;-2.20;99.50;;;;;;5092344;28;20181;-71
2022/03/09 10:19:38;;;;;;;6.43;2.88;;;-2.40;98.50;;;;;;5091444;28;20497;-71
2022/03/09 10:22:46;;;;;;;5.47;2.87;;;-2.40;99.60;;;;;;5091966;28;20637;-74
2022/03/09 10:25:12;;;;;;;5.60;2.83;;;-2.30;99.40;;;;;;5029667;28;20208;-69
2022/03/09 10:27:37;;;;;;;3.47;1.83;;;-2.30;99.80;;;;;;5080488;28;20298;-66
2022/03/09 10:30:07;;;;;;;3.53;2.07;;;-2.20;99.20;;;;;;5092149;28;20185;-55
2022/03/09 10:32:50;;;;;;;7.77;2.60;;;-2.30;99.80;;;;;;5091123;28;20262;-58
2022/03/09 10:35:31;;;;;;;6.80;3.10;;;-2.00;99.90;;;;;;5090219;28;20239;-58
2022/03/09 10:38:06;;;;;;;5.73;3.20;;;-1.80;99.90;;;;;;5091088;28;20205;-57
2022/03/09 10:40:40;;;;;;;7.00;3.20;;;-1.90;99.90;;;;;;5091716;28;20234;-60
2022/03/09 10:43:20;;;;;;;6.97;3.70;;;-2.10;99.90;;;;;;5073845;28;20196;-58
2022/03/09 10:45:57;;;;;;;6.67;2.80;;;-2.30;99.90;;;;;;5090187;28;20191;-58
2022/03/09 10:48:23;;;;;;;9.87;4.00;;;-2.20;99.90;;;;;;5090834;28;20280;-66
2022/03/09 10:50:52;;;;;;;7.10;3.43;;;-2.00;99.90;;;;;;5090932;28;20687;-59
2022/03/09 10:53:18;;;;;;;6.63;3.57;;;-1.90;99.90;;;;;;5072629;28;20211;-54
2022/03/09 10:55:44;;;;;;;6.33;3.90;;;-2.00;99.90;;;;;;5072652;28;20195;-65
2022/03/09 10:58:17;;;;;;;6.03;3.23;;;-1.80;99.90;;;;;;5072512;28;20191;-66
2022/03/09 11:00:51;;;;;;;5.13;2.93;;;-1.80;99.90;;;;;;5090820;28;20990;-65
2022/03/09 11:03:19;;;;;;;5.77;4.10;;;-1.80;99.90;;;;;;5090832;28;20199;-65
2022/03/09 11:05:51;;;;;;;5.37;3.00;;;-1.90;99.90;;;;;;5072770;28;20190;-65
2022/03/09 11:08:18;;;;;;;7.13;3.57;;;-1.70;99.90;;;;;;5072546;28;20195;-67
2022/03/09 11:10:46;;;;;;;9.00;3.40;;;-1.60;99.90;;;;;;5090124;28;20193;-65
2022/03/09 11:13:13;;;;;;;6.30;3.53;;;-1.40;99.90;;;;;;5091330;28;20187;-66
2022/03/09 11:15:40;;;;;;;12.43;3.43;;;-1.50;99.70;;;;;;5089471;28;20559;-68
2022/03/09 11:18:06;;;;;;;5.27;2.57;;;-1.40;99.60;;;;;;5091274;28;20208;-66
2022/03/09 11:20:32;;;;;;;7.90;2.77;;;-1.30;98.80;;;;;;5090172;28;20172;-68
2022/03/09 11:22:58;;;;;;;9.80;3.20;;;-1.20;99.40;;;;;;5055336;28;20181;-64
2022/03/09 11:25:24;;;;;;;7.90;3.77;;;-1.10;98.70;;;;;;5090643;28;20235;-74
2022/03/09 11:27:53;;;;;;;11.17;3.80;;;-0.90;98.50;;;;;;5054046;28;20211;-66
2022/03/09 11:30:31;;;;;;;9.90;3.23;;;-0.90;97.90;;;;;;5054634;28;20189;-66
2022/03/09 11:32:57;;;;;;;7.97;3.47;;;-0.90;97.00;;;;;;5090007;28;20605;-64
2022/03/09 11:35:35;;;;;;;7.00;3.60;;;-0.70;97.60;;;;;;5090384;28;20219;-65
2022/03/09 11:38:03;;;;;;;6.93;3.43;;;-0.40;97.00;;;;;;5067811;28;20192;-69
2022/03/09 11:40:29;;;;;;;5.53;3.00;;;-0.20;96.80;;;;;;5089431;28;20176;-71
2022/03/09 11:42:54;;;;;;;10.13;3.77;;;-0.20;95.40;;;;;;5090737;28;20192;-65
2022/03/09 11:45:20;;;;;;;7.77;3.50;;;-0.10;95.50;;;;;;5090174;28;20190;-71
2022/03/09 11:48:09;;;;;;;15.50;3.93;;;0.00;95.00;;;;;;5089476;28;20522;-68
2022/03/09 11:51:03;;;;;;;8.27;3.57;;;0.20;95.10;;;;;;5089881;28;20180;-64
2022/03/09 11:53:41;;;;;;;6.37;3.20;;;0.60;95.20;;;;;;5089302;28;20213;-65
2022/03/09 11:56:51;;;;;;;8.87;3.13;;;0.70;94.10;;;;;;5084546;28;20280;-65
2022/03/09 11:59:24;;;;;;;11.23;4.43;;;1.10;93.00;;;;;;4987438;28;20196;-65
2022/03/09 12:01:56;;;;;;;6.20;3.07;;;1.00;92.80;;;;;;4988003;28;20198;-66
2022/03/09 12:04:40;;;;;;;8.13;3.03;;;1.90;91.70;;;;;;5030138;28;20199;-64
2022/03/09 12:07:07;;;;;;;6.13;3.20;;;3.40;87.90;;;;;;5070877;28;20227;-63
2022/03/09 12:09:55;;;;;;;5.03;2.73;;;5.40;83.10;;;;;;5089729;28;20185;-63
2022/03/09 12:12:21;;;;;;;8.63;3.47;;;6.10;72.50;;;;;;5089520;28;20192;-64
2022/03/09 12:15:05;;;;;;;15.93;3.43;;;6.20;68.10;;;;;;5089585;28;20215;-62
2022/03/09 12:17:43;;;;;;;9.47;2.80;;;6.00;65.10;;;;;;5089035;28;20188;-63
2022/03/09 12:20:19;;;;;;;4.50;2.90;;;6.50;65.90;;;;;;5071041;28;20189;-64
2022/03/09 12:22:56;;;;;;;6.60;3.20;;;6.30;63.70;;;;;;5089559;28;20224;-64
2022/03/09 12:25:44;;;;;;;10.70;3.40;;;6.90;64.50;;;;;;5089235;28;20281;-64
2022/03/09 12:28:25;;;;;;;8.53;5.30;;;7.50;62.50;;;;;;5054341;28;20184;-62
2022/03/09 12:30:53;;;;;;;8.63;3.30;;;7.30;60.50;;;;;;5070549;28;20274;-67
2022/03/09 12:33:29;;;;;;;8.53;2.63;;;8.20;59.10;;;;;;5090310;28;20198;-65
2022/03/09 12:36:13;;;;;;;6.80;3.43;;;8.30;58.00;;;;;;5089906;28;20254;-64
2022/03/09 12:38:42;;;;;;;18.50;3.63;;;8.80;58.10;;;;;;5070948;28;20267;-66
2022/03/09 12:41:26;;;;;;;3.93;1.93;;;9.40;57.30;;;;;;5088829;28;20184;-65
2022/03/09 12:43:54;;;;;;;5.60;2.70;;;9.30;52.50;;;;;;5088257;28;20302;-65
2022/03/09 12:46:21;;;;;;;8.60;3.20;;;8.50;56.00;;;;;;5088868;28;20193;-64
2022/03/09 12:48:47;;;;;;;9.73;3.43;;;9.60;54.90;;;;;;5089125;28;20963;-67
2022/03/09 12:51:13;;;;;;;5.10;2.70;;;10.40;52.70;;;;;;5088097;28;20285;-71